sensor_id;sensor_type;location;lat;lon;timestamp;P1;durP1;ratioP1;P2;durP2;ratioP2
13611;SDS011;6877;51.436;6.774;2023-07-24T00:00:00;9.05;;;4.90;;
13611;SDS011;6877;51.436;6.774;2023-07-24T00:02:27;19.20;;;7.80;;
13611;SDS011;6877;51.436;6.774;2023-07-24T00:04:54;12.40;;;5.65;;
13611;SDS011;6877;51.436;6.774;2023-07-24T00:07:20;7.57;;;4.13;;
13611;SDS011;6877;51.436;6.774;2023-07-24T00:09:46;6.13;;;3.90;;
13611;SDS011;6877;51.436;6.774;2023-07-24T00:12:13;9.77;;;4.13;;
13611;SDS011;6877;51.436;6.774;2023-07-24T00:14:40;8.00;;;4.53;;
13611;SDS011;6877;51.436;6.774;2023-07-24T00:17:06;8.88;;;4.45;;
13611;SDS011;6877;51.436;6.774;2023-07-24T00:19:33;7.05;;;3.83;;
13611;SDS011;6877;51.436;6.774;2023-07-24T00:21:59;6.95;;;4.20;;
13611;SDS011;6877;51.436;6.774;2023-07-24T00:24:26;7.05;;;4.13;;
13611;SDS011;6877;51.436;6.774;2023-07-24T00:26:53;7.75;;;4.35;;
13611;SDS011;6877;51.436;6.774;2023-07-24T00:29:24;6.40;;;4.30;;
13611;SDS011;6877;51.436;6.774;2023-07-24T00:31:51;9.13;;;4.38;;
13611;SDS011;6877;51.436;6.774;2023-07-24T00:34:22;7.75;;;4.65;;
13611;SDS011;6877;51.436;6.774;2023-07-24T00:36:54;5.65;;;4.13;;
13611;SDS011;6877;51.436;6.774;2023-07-24T00:39:20;7.18;;;4.68;;
13611;SDS011;6877;51.436;6.774;2023-07-24T00:41:51;7.85;;;3.92;;
13611;SDS011;6877;51.436;6.774;2023-07-24T00:44:23;7.57;;;4.40;;
13611;SDS011;6877;51.436;6.774;2023-07-24T00:46:49;6.68;;;3.83;;
13611;SDS011;6877;51.436;6.774;2023-07-24T00:49:16;7.30;;;3.72;;
13611;SDS011;6877;51.436;6.774;2023-07-24T00:51:43;5.82;;;3.90;;
13611;SDS011;6877;51.436;6.774;2023-07-24T00:54:10;6.30;;;3.90;;
13611;SDS011;6877;51.436;6.774;2023-07-24T00:56:39;4.88;;;3.70;;
13611;SDS011;6877;51.436;6.774;2023-07-24T00:59:05;7.18;;;4.57;;
13611;SDS011;6877;51.436;6.774;2023-07-24T01:01:37;12.95;;;4.95;;
13611;SDS011;6877;51.436;6.774;2023-07-24T01:04:10;7.82;;;4.82;;
13611;SDS011;6877;51.436;6.774;2023-07-24T01:06:42;6.55;;;4.32;;
13611;SDS011;6877;51.436;6.774;2023-07-24T01:09:08;6.78;;;3.80;;
13611;SDS011;6877;51.436;6.774;2023-07-24T01:11:46;5.80;;;3.83;;
13611;SDS011;6877;51.436;6.774;2023-07-24T01:16:58;9.02;;;4.05;;
13611;SDS011;6877;51.436;6.774;2023-07-24T01:22:14;6.15;;;3.92;;
13611;SDS011;6877;51.436;6.774;2023-07-24T01:25:16;8.15;;;4.28;;
13611;SDS011;6877;51.436;6.774;2023-07-24T01:27:53;9.60;;;5.38;;
13611;SDS011;6877;51.436;6.774;2023-07-24T01:30:24;5.38;;;3.90;;
13611;SDS011;6877;51.436;6.774;2023-07-24T01:32:50;5.57;;;4.03;;
13611;SDS011;6877;51.436;6.774;2023-07-24T01:35:17;6.25;;;4.03;;
13611;SDS011;6877;51.436;6.774;2023-07-24T01:37:49;7.97;;;4.30;;
13611;SDS011;6877;51.436;6.774;2023-07-24T01:40:21;6.07;;;3.90;;
13611;SDS011;6877;51.436;6.774;2023-07-24T01:42:53;7.65;;;4.50;;
13611;SDS011;6877;51.436;6.774;2023-07-24T01:45:24;7.05;;;4.07;;
13611;SDS011;6877;51.436;6.774;2023-07-24T01:47:51;13.85;;;5.05;;
13611;SDS011;6877;51.436;6.774;2023-07-24T01:50:18;6.68;;;4.30;;
13611;SDS011;6877;51.436;6.774;2023-07-24T01:52:44;7.55;;;3.90;;
13611;SDS011;6877;51.436;6.774;2023-07-24T01:55:11;8.82;;;4.65;;
13611;SDS011;6877;51.436;6.774;2023-07-24T01:57:37;11.63;;;4.50;;
13611;SDS011;6877;51.436;6.774;2023-07-24T02:00:09;7.88;;;4.25;;
13611;SDS011;6877;51.436;6.774;2023-07-24T02:02:36;8.80;;;4.30;;
13611;SDS011;6877;51.436;6.774;2023-07-24T02:05:07;9.02;;;4.47;;
13611;SDS011;6877;51.436;6.774;2023-07-24T02:07:34;8.50;;;4.88;;
13611;SDS011;6877;51.436;6.774;2023-07-24T02:10:01;9.50;;;5.30;;
13611;SDS011;6877;51.436;6.774;2023-07-24T02:12:27;7.70;;;4.68;;
13611;SDS011;6877;51.436;6.774;2023-07-24T02:14:54;8.80;;;4.53;;
13611;SDS011;6877;51.436;6.774;2023-07-24T02:17:26;8.75;;;4.60;;
13611;SDS011;6877;51.436;6.774;2023-07-24T02:19:52;7.63;;;4.43;;
13611;SDS011;6877;51.436;6.774;2023-07-24T02:22:24;7.00;;;4.47;;
13611;SDS011;6877;51.436;6.774;2023-07-24T02:24:56;8.57;;;3.95;;
13611;SDS011;6877;51.436;6.774;2023-07-24T02:27:26;10.75;;;5.03;;
13611;SDS011;6877;51.436;6.774;2023-07-24T02:29:59;8.10;;;4.15;;
13611;SDS011;6877;51.436;6.774;2023-07-24T02:32:26;6.60;;;4.20;;
13611;SDS011;6877;51.436;6.774;2023-07-24T02:34:52;9.35;;;4.88;;
13611;SDS011;6877;51.436;6.774;2023-07-24T02:37:19;12.10;;;4.97;;
13611;SDS011;6877;51.436;6.774;2023-07-24T02:39:46;7.15;;;4.20;;
13611;SDS011;6877;51.436;6.774;2023-07-24T02:42:12;10.85;;;4.85;;
13611;SDS011;6877;51.436;6.774;2023-07-24T02:44:38;10.52;;;4.97;;
13611;SDS011;6877;51.436;6.774;2023-07-24T02:47:05;8.85;;;4.78;;
13611;SDS011;6877;51.436;6.774;2023-07-24T02:49:31;5.93;;;4.20;;
13611;SDS011;6877;51.436;6.774;2023-07-24T02:51:59;7.00;;;4.78;;
13611;SDS011;6877;51.436;6.774;2023-07-24T02:54:25;6.57;;;4.40;;
13611;SDS011;6877;51.436;6.774;2023-07-24T02:56:52;9.40;;;4.75;;
13611;SDS011;6877;51.436;6.774;2023-07-24T02:59:24;10.73;;;5.05;;
13611;SDS011;6877;51.436;6.774;2023-07-24T03:01:50;5.95;;;4.38;;
13611;SDS011;6877;51.436;6.774;2023-07-24T03:04:17;8.57;;;4.88;;
13611;SDS011;6877;51.436;6.774;2023-07-24T03:06:44;14.32;;;5.40;;
13611;SDS011;6877;51.436;6.774;2023-07-24T03:09:10;15.00;;;4.65;;
13611;SDS011;6877;51.436;6.774;2023-07-24T03:11:36;13.02;;;5.43;;
13611;SDS011;6877;51.436;6.774;2023-07-24T03:14:03;10.38;;;5.50;;
13611;SDS011;6877;51.436;6.774;2023-07-24T03:16:29;8.95;;;5.28;;
13611;SDS011;6877;51.436;6.774;2023-07-24T03:19:03;12.60;;;5.20;;
13611;SDS011;6877;51.436;6.774;2023-07-24T03:21:34;10.35;;;5.43;;
13611;SDS011;6877;51.436;6.774;2023-07-24T03:24:04;8.23;;;5.68;;
13611;SDS011;6877;51.436;6.774;2023-07-24T03:26:30;10.48;;;6.50;;
13611;SDS011;6877;51.436;6.774;2023-07-24T03:28:57;13.63;;;5.60;;
13611;SDS011;6877;51.436;6.774;2023-07-24T03:31:23;9.77;;;5.50;;
13611;SDS011;6877;51.436;6.774;2023-07-24T03:33:50;11.90;;;6.43;;
13611;SDS011;6877;51.436;6.774;2023-07-24T03:36:16;14.88;;;5.78;;
13611;SDS011;6877;51.436;6.774;2023-07-24T03:38:47;46.05;;;11.35;;
13611;SDS011;6877;51.436;6.774;2023-07-24T03:41:14;12.93;;;6.88;;
13611;SDS011;6877;51.436;6.774;2023-07-24T03:43:40;10.88;;;5.60;;
13611;SDS011;6877;51.436;6.774;2023-07-24T03:46:12;12.77;;;6.55;;
13611;SDS011;6877;51.436;6.774;2023-07-24T03:48:38;13.93;;;6.75;;
13611;SDS011;6877;51.436;6.774;2023-07-24T03:51:05;12.98;;;7.13;;
13611;SDS011;6877;51.436;6.774;2023-07-24T03:53:36;18.23;;;6.25;;
13611;SDS011;6877;51.436;6.774;2023-07-24T03:56:03;9.63;;;6.45;;
13611;SDS011;6877;51.436;6.774;2023-07-24T03:58:34;10.02;;;6.10;;
13611;SDS011;6877;51.436;6.774;2023-07-24T04:01:01;14.75;;;6.55;;
13611;SDS011;6877;51.436;6.774;2023-07-24T04:03:27;11.68;;;6.13;;
13611;SDS011;6877;51.436;6.774;2023-07-24T04:05:59;12.07;;;5.75;;
13611;SDS011;6877;51.436;6.774;2023-07-24T04:08:30;12.23;;;6.88;;
13611;SDS011;6877;51.436;6.774;2023-07-24T04:10:56;16.08;;;7.25;;
13611;SDS011;6877;51.436;6.774;2023-07-24T04:13:23;12.48;;;6.18;;
13611;SDS011;6877;51.436;6.774;2023-07-24T04:15:49;21.58;;;6.28;;
13611;SDS011;6877;51.436;6.774;2023-07-24T04:18:16;11.50;;;6.10;;
13611;SDS011;6877;51.436;6.774;2023-07-24T04:20:42;11.07;;;6.97;;
13611;SDS011;6877;51.436;6.774;2023-07-24T04:23:09;17.70;;;7.38;;
13611;SDS011;6877;51.436;6.774;2023-07-24T04:25:40;17.70;;;8.63;;
13611;SDS011;6877;51.436;6.774;2023-07-24T04:28:07;16.67;;;7.28;;
13611;SDS011;6877;51.436;6.774;2023-07-24T04:30:38;18.58;;;7.70;;
13611;SDS011;6877;51.436;6.774;2023-07-24T04:33:04;16.17;;;7.35;;
13611;SDS011;6877;51.436;6.774;2023-07-24T04:35:31;13.80;;;7.05;;
13611;SDS011;6877;51.436;6.774;2023-07-24T04:37:57;12.82;;;7.15;;
13611;SDS011;6877;51.436;6.774;2023-07-24T04:40:29;17.58;;;7.72;;
13611;SDS011;6877;51.436;6.774;2023-07-24T04:43:00;19.95;;;8.77;;
13611;SDS011;6877;51.436;6.774;2023-07-24T04:45:28;18.65;;;8.27;;
13611;SDS011;6877;51.436;6.774;2023-07-24T04:47:59;18.80;;;7.80;;
13611;SDS011;6877;51.436;6.774;2023-07-24T04:50:30;19.38;;;7.80;;
13611;SDS011;6877;51.436;6.774;2023-07-24T04:53:02;14.77;;;8.80;;
13611;SDS011;6877;51.436;6.774;2023-07-24T04:55:33;25.08;;;9.00;;
13611;SDS011;6877;51.436;6.774;2023-07-24T04:58:05;18.27;;;8.90;;
13611;SDS011;6877;51.436;6.774;2023-07-24T05:00:31;22.55;;;8.82;;
13611;SDS011;6877;51.436;6.774;2023-07-24T05:02:57;19.48;;;8.80;;
13611;SDS011;6877;51.436;6.774;2023-07-24T05:05:24;16.88;;;7.93;;
13611;SDS011;6877;51.436;6.774;2023-07-24T05:07:50;18.35;;;7.40;;
13611;SDS011;6877;51.436;6.774;2023-07-24T05:10:17;14.75;;;6.20;;
13611;SDS011;6877;51.436;6.774;2023-07-24T05:12:43;16.75;;;5.78;;
13611;SDS011;6877;51.436;6.774;2023-07-24T05:15:15;15.60;;;6.93;;
13611;SDS011;6877;51.436;6.774;2023-07-24T05:17:44;11.63;;;6.18;;
13611;SDS011;6877;51.436;6.774;2023-07-24T05:20:11;17.40;;;7.57;;
13611;SDS011;6877;51.436;6.774;2023-07-24T05:22:37;13.45;;;5.88;;
13611;SDS011;6877;51.436;6.774;2023-07-24T05:25:04;11.90;;;6.68;;
13611;SDS011;6877;51.436;6.774;2023-07-24T05:27:31;12.75;;;5.65;;
13611;SDS011;6877;51.436;6.774;2023-07-24T05:29:57;11.75;;;5.72;;
13611;SDS011;6877;51.436;6.774;2023-07-24T05:32:23;13.18;;;6.97;;
13611;SDS011;6877;51.436;6.774;2023-07-24T05:34:50;17.20;;;5.55;;
13611;SDS011;6877;51.436;6.774;2023-07-24T05:37:16;14.18;;;7.15;;
13611;SDS011;6877;51.436;6.774;2023-07-24T05:39:43;13.00;;;7.05;;
13611;SDS011;6877;51.436;6.774;2023-07-24T05:42:09;16.85;;;6.40;;
13611;SDS011;6877;51.436;6.774;2023-07-24T05:44:36;10.20;;;6.03;;
13611;SDS011;6877;51.436;6.774;2023-07-24T05:47:03;14.18;;;6.35;;
13611;SDS011;6877;51.436;6.774;2023-07-24T05:49:34;14.13;;;6.35;;
13611;SDS011;6877;51.436;6.774;2023-07-24T05:52:01;13.07;;;6.40;;
13611;SDS011;6877;51.436;6.774;2023-07-24T05:54:27;14.63;;;6.63;;
13611;SDS011;6877;51.436;6.774;2023-07-24T05:56:54;13.65;;;6.63;;
13611;SDS011;6877;51.436;6.774;2023-07-24T05:59:20;12.15;;;6.40;;
13611;SDS011;6877;51.436;6.774;2023-07-24T06:01:47;13.85;;;6.53;;
13611;SDS011;6877;51.436;6.774;2023-07-24T06:04:13;13.57;;;6.90;;
13611;SDS011;6877;51.436;6.774;2023-07-24T06:06:44;16.75;;;7.85;;
13611;SDS011;6877;51.436;6.774;2023-07-24T06:09:11;12.15;;;7.50;;
13611;SDS011;6877;51.436;6.774;2023-07-24T06:11:42;13.63;;;7.00;;
13611;SDS011;6877;51.436;6.774;2023-07-24T06:14:14;18.10;;;7.82;;
13611;SDS011;6877;51.436;6.774;2023-07-24T06:16:45;14.02;;;7.30;;
13611;SDS011;6877;51.436;6.774;2023-07-24T06:19:13;17.55;;;6.93;;
13611;SDS011;6877;51.436;6.774;2023-07-24T06:21:40;18.65;;;7.60;;
13611;SDS011;6877;51.436;6.774;2023-07-24T06:24:07;16.95;;;7.05;;
13611;SDS011;6877;51.436;6.774;2023-07-24T06:26:38;14.48;;;7.22;;
13611;SDS011;6877;51.436;6.774;2023-07-24T06:29:10;14.25;;;7.82;;
13611;SDS011;6877;51.436;6.774;2023-07-24T06:31:36;14.07;;;8.00;;
13611;SDS011;6877;51.436;6.774;2023-07-24T06:34:03;17.17;;;7.28;;
13611;SDS011;6877;51.436;6.774;2023-07-24T06:36:29;17.55;;;7.82;;
13611;SDS011;6877;51.436;6.774;2023-07-24T06:38:56;16.05;;;7.28;;
13611;SDS011;6877;51.436;6.774;2023-07-24T06:41:23;14.68;;;7.15;;
13611;SDS011;6877;51.436;6.774;2023-07-24T06:43:54;9.75;;;5.75;;
13611;SDS011;6877;51.436;6.774;2023-07-24T06:46:21;12.48;;;5.72;;
13611;SDS011;6877;51.436;6.774;2023-07-24T06:48:47;15.57;;;5.68;;
13611;SDS011;6877;51.436;6.774;2023-07-24T06:51:14;9.82;;;5.68;;
13611;SDS011;6877;51.436;6.774;2023-07-24T06:53:40;13.15;;;5.68;;
13611;SDS011;6877;51.436;6.774;2023-07-24T06:56:06;8.65;;;4.82;;
13611;SDS011;6877;51.436;6.774;2023-07-24T06:58:38;8.65;;;5.18;;
13611;SDS011;6877;51.436;6.774;2023-07-24T07:01:05;11.50;;;6.20;;
13611;SDS011;6877;51.436;6.774;2023-07-24T07:03:37;10.65;;;6.05;;
13611;SDS011;6877;51.436;6.774;2023-07-24T07:06:04;11.82;;;5.60;;
13611;SDS011;6877;51.436;6.774;2023-07-24T07:08:37;10.55;;;5.30;;
13611;SDS011;6877;51.436;6.774;2023-07-24T07:11:04;8.13;;;5.20;;
13611;SDS011;6877;51.436;6.774;2023-07-24T07:13:30;9.32;;;4.80;;
13611;SDS011;6877;51.436;6.774;2023-07-24T07:15:57;7.70;;;4.53;;
13611;SDS011;6877;51.436;6.774;2023-07-24T07:18:23;7.40;;;4.80;;
13611;SDS011;6877;51.436;6.774;2023-07-24T07:20:50;9.10;;;4.78;;
13611;SDS011;6877;51.436;6.774;2023-07-24T07:23:19;12.77;;;4.93;;
13611;SDS011;6877;51.436;6.774;2023-07-24T07:25:46;7.10;;;4.03;;
13611;SDS011;6877;51.436;6.774;2023-07-24T07:28:13;8.10;;;4.95;;
13611;SDS011;6877;51.436;6.774;2023-07-24T07:30:41;10.07;;;4.57;;
13611;SDS011;6877;51.436;6.774;2023-07-24T07:33:08;7.68;;;4.55;;
13611;SDS011;6877;51.436;6.774;2023-07-24T07:35:35;8.75;;;5.40;;
13611;SDS011;6877;51.436;6.774;2023-07-24T07:38:07;9.20;;;5.00;;
13611;SDS011;6877;51.436;6.774;2023-07-24T07:40:38;9.20;;;5.63;;
13611;SDS011;6877;51.436;6.774;2023-07-24T07:43:10;9.23;;;6.07;;
13611;SDS011;6877;51.436;6.774;2023-07-24T07:45:41;22.67;;;8.13;;
13611;SDS011;6877;51.436;6.774;2023-07-24T07:48:08;13.00;;;5.30;;
13611;SDS011;6877;51.436;6.774;2023-07-24T07:50:34;8.70;;;4.93;;
13611;SDS011;6877;51.436;6.774;2023-07-24T07:53:01;6.57;;;4.13;;
13611;SDS011;6877;51.436;6.774;2023-07-24T07:55:32;7.60;;;3.60;;
13611;SDS011;6877;51.436;6.774;2023-07-24T07:57:59;6.55;;;4.13;;
13611;SDS011;6877;51.436;6.774;2023-07-24T08:00:30;7.07;;;3.33;;
13611;SDS011;6877;51.436;6.774;2023-07-24T08:03:03;9.23;;;3.15;;
13611;SDS011;6877;51.436;6.774;2023-07-24T08:05:29;6.15;;;3.30;;
13611;SDS011;6877;51.436;6.774;2023-07-24T08:07:55;5.53;;;2.78;;
13611;SDS011;6877;51.436;6.774;2023-07-24T08:10:27;4.30;;;2.63;;
13611;SDS011;6877;51.436;6.774;2023-07-24T08:12:53;5.88;;;2.35;;
13611;SDS011;6877;51.436;6.774;2023-07-24T08:15:20;3.83;;;2.00;;
13611;SDS011;6877;51.436;6.774;2023-07-24T08:17:46;3.92;;;2.65;;
13611;SDS011;6877;51.436;6.774;2023-07-24T08:20:18;2.55;;;2.08;;
13611;SDS011;6877;51.436;6.774;2023-07-24T08:22:44;3.78;;;2.50;;
13611;SDS011;6877;51.436;6.774;2023-07-24T08:25:10;2.65;;;2.20;;
13611;SDS011;6877;51.436;6.774;2023-07-24T08:27:37;3.67;;;2.42;;
13611;SDS011;6877;51.436;6.774;2023-07-24T08:30:03;2.75;;;2.10;;
13611;SDS011;6877;51.436;6.774;2023-07-24T08:32:30;2.40;;;1.88;;
13611;SDS011;6877;51.436;6.774;2023-07-24T08:34:57;6.32;;;2.35;;
13611;SDS011;6877;51.436;6.774;2023-07-24T08:37:28;3.38;;;2.28;;
13611;SDS011;6877;51.436;6.774;2023-07-24T08:40:00;3.40;;;2.00;;
13611;SDS011;6877;51.436;6.774;2023-07-24T08:42:26;2.60;;;1.70;;
13611;SDS011;6877;51.436;6.774;2023-07-24T08:44:59;2.55;;;1.58;;
13611;SDS011;6877;51.436;6.774;2023-07-24T08:47:31;3.40;;;1.92;;
13611;SDS011;6877;51.436;6.774;2023-07-24T08:50:05;3.00;;;1.80;;
13611;SDS011;6877;51.436;6.774;2023-07-24T08:52:32;2.85;;;1.60;;
13611;SDS011;6877;51.436;6.774;2023-07-24T08:55:04;2.40;;;1.38;;
13611;SDS011;6877;51.436;6.774;2023-07-24T08:57:31;2.50;;;1.63;;
13611;SDS011;6877;51.436;6.774;2023-07-24T08:59:57;3.25;;;1.73;;
13611;SDS011;6877;51.436;6.774;2023-07-24T09:02:24;2.97;;;2.25;;
13611;SDS011;6877;51.436;6.774;2023-07-24T09:04:56;1.63;;;1.35;;
13611;SDS011;6877;51.436;6.774;2023-07-24T09:07:23;3.17;;;1.60;;
13611;SDS011;6877;51.436;6.774;2023-07-24T09:09:54;1.30;;;1.17;;
13611;SDS011;6877;51.436;6.774;2023-07-24T09:12:22;1.55;;;1.30;;
13611;SDS011;6877;51.436;6.774;2023-07-24T09:15:04;2.72;;;1.45;;
13611;SDS011;6877;51.436;6.774;2023-07-24T09:17:36;2.50;;;1.58;;
13611;SDS011;6877;51.436;6.774;2023-07-24T09:20:18;2.58;;;1.20;;
13611;SDS011;6877;51.436;6.774;2023-07-24T09:22:51;3.72;;;1.60;;
13611;SDS011;6877;51.436;6.774;2023-07-24T09:25:30;3.78;;;1.73;;
13611;SDS011;6877;51.436;6.774;2023-07-24T09:28:17;3.03;;;1.80;;
13611;SDS011;6877;51.436;6.774;2023-07-24T09:30:54;3.70;;;1.95;;
13611;SDS011;6877;51.436;6.774;2023-07-24T09:33:34;3.10;;;2.28;;
13611;SDS011;6877;51.436;6.774;2023-07-24T09:36:08;3.42;;;2.15;;
13611;SDS011;6877;51.436;6.774;2023-07-24T09:38:35;2.83;;;1.75;;
13611;SDS011;6877;51.436;6.774;2023-07-24T09:41:07;5.00;;;2.25;;
13611;SDS011;6877;51.436;6.774;2023-07-24T09:43:34;6.13;;;2.20;;
13611;SDS011;6877;51.436;6.774;2023-07-24T09:46:09;3.05;;;2.17;;
13611;SDS011;6877;51.436;6.774;2023-07-24T09:48:35;3.55;;;2.13;;
13611;SDS011;6877;51.436;6.774;2023-07-24T09:51:02;6.57;;;1.88;;
13611;SDS011;6877;51.436;6.774;2023-07-24T09:56:09;6.15;;;2.33;;
13611;SDS011;6877;51.436;6.774;2023-07-24T09:58:37;17.42;;;2.63;;
13611;SDS011;6877;51.436;6.774;2023-07-24T10:01:05;8.05;;;2.53;;
13611;SDS011;6877;51.436;6.774;2023-07-24T10:03:35;2.50;;;2.05;;
13611;SDS011;6877;51.436;6.774;2023-07-24T10:06:16;4.22;;;2.00;;
13611;SDS011;6877;51.436;6.774;2023-07-24T10:08:43;2.47;;;2.10;;
13611;SDS011;6877;51.436;6.774;2023-07-24T10:11:11;3.20;;;2.28;;
13611;SDS011;6877;51.436;6.774;2023-07-24T10:13:43;5.57;;;2.88;;
13611;SDS011;6877;51.436;6.774;2023-07-24T10:16:16;3.63;;;2.25;;
13611;SDS011;6877;51.436;6.774;2023-07-24T10:18:44;3.03;;;2.40;;
13611;SDS011;6877;51.436;6.774;2023-07-24T10:21:16;3.65;;;2.28;;
13611;SDS011;6877;51.436;6.774;2023-07-24T10:23:48;3.67;;;2.53;;
13611;SDS011;6877;51.436;6.774;2023-07-24T10:26:14;5.50;;;2.88;;
13611;SDS011;6877;51.436;6.774;2023-07-24T10:28:47;5.85;;;2.55;;
13611;SDS011;6877;51.436;6.774;2023-07-24T10:31:33;8.60;;;3.03;;
13611;SDS011;6877;51.436;6.774;2023-07-24T10:34:06;6.22;;;3.03;;
13611;SDS011;6877;51.436;6.774;2023-07-24T10:36:38;4.93;;;2.70;;
13611;SDS011;6877;51.436;6.774;2023-07-24T10:39:13;4.90;;;2.58;;
13611;SDS011;6877;51.436;6.774;2023-07-24T10:41:41;5.57;;;3.35;;
13611;SDS011;6877;51.436;6.774;2023-07-24T10:44:07;4.30;;;3.45;;
13611;SDS011;6877;51.436;6.774;2023-07-24T10:46:39;9.25;;;3.80;;
13611;SDS011;6877;51.436;6.774;2023-07-24T10:49:07;5.35;;;3.75;;
13611;SDS011;6877;51.436;6.774;2023-07-24T10:51:34;5.00;;;4.40;;
13611;SDS011;6877;51.436;6.774;2023-07-24T10:54:04;7.03;;;4.68;;
13611;SDS011;6877;51.436;6.774;2023-07-24T10:56:36;7.78;;;5.13;;
13611;SDS011;6877;51.436;6.774;2023-07-24T10:59:03;9.07;;;5.88;;
13611;SDS011;6877;51.436;6.774;2023-07-24T11:01:31;10.63;;;5.05;;
13611;SDS011;6877;51.436;6.774;2023-07-24T11:04:03;6.80;;;4.97;;
13611;SDS011;6877;51.436;6.774;2023-07-24T11:06:29;9.23;;;5.70;;
13611;SDS011;6877;51.436;6.774;2023-07-24T11:09:01;12.10;;;5.75;;
13611;SDS011;6877;51.436;6.774;2023-07-24T11:11:28;10.65;;;5.97;;
13611;SDS011;6877;51.436;6.774;2023-07-24T11:13:55;7.95;;;5.25;;
13611;SDS011;6877;51.436;6.774;2023-07-24T11:16:22;10.27;;;4.78;;
13611;SDS011;6877;51.436;6.774;2023-07-24T11:18:49;7.03;;;5.18;;
13611;SDS011;6877;51.436;6.774;2023-07-24T11:21:23;11.27;;;5.63;;
13611;SDS011;6877;51.436;6.774;2023-07-24T11:23:51;9.00;;;4.85;;
13611;SDS011;6877;51.436;6.774;2023-07-24T11:26:23;9.98;;;4.90;;
13611;SDS011;6877;51.436;6.774;2023-07-24T11:28:51;6.75;;;4.40;;
13611;SDS011;6877;51.436;6.774;2023-07-24T11:31:24;7.18;;;5.10;;
13611;SDS011;6877;51.436;6.774;2023-07-24T11:33:55;7.72;;;4.35;;
13611;SDS011;6877;51.436;6.774;2023-07-24T11:36:27;11.25;;;5.25;;
13611;SDS011;6877;51.436;6.774;2023-07-24T11:38:59;6.82;;;4.05;;
13611;SDS011;6877;51.436;6.774;2023-07-24T11:41:26;9.13;;;5.63;;
13611;SDS011;6877;51.436;6.774;2023-07-24T11:43:53;8.70;;;5.22;;
13611;SDS011;6877;51.436;6.774;2023-07-24T11:46:26;10.00;;;5.05;;
13611;SDS011;6877;51.436;6.774;2023-07-24T11:48:58;11.63;;;4.93;;
13611;SDS011;6877;51.436;6.774;2023-07-24T11:51:30;7.95;;;5.40;;
13611;SDS011;6877;51.436;6.774;2023-07-24T11:54:08;10.80;;;4.95;;
13611;SDS011;6877;51.436;6.774;2023-07-24T11:56:37;9.52;;;4.35;;
13611;SDS011;6877;51.436;6.774;2023-07-24T11:59:11;11.65;;;5.22;;
13611;SDS011;6877;51.436;6.774;2023-07-24T12:01:37;8.23;;;5.20;;
13611;SDS011;6877;51.436;6.774;2023-07-24T12:04:04;12.68;;;6.20;;
13611;SDS011;6877;51.436;6.774;2023-07-24T12:06:31;10.20;;;5.32;;
13611;SDS011;6877;51.436;6.774;2023-07-24T12:09:04;8.30;;;5.15;;
13611;SDS011;6877;51.436;6.774;2023-07-24T12:11:32;9.55;;;5.88;;
13611;SDS011;6877;51.436;6.774;2023-07-24T12:13:58;11.90;;;5.80;;
13611;SDS011;6877;51.436;6.774;2023-07-24T12:16:25;9.32;;;5.05;;
13611;SDS011;6877;51.436;6.774;2023-07-24T12:18:51;11.80;;;4.72;;
13611;SDS011;6877;51.436;6.774;2023-07-24T12:21:18;9.05;;;4.57;;
13611;SDS011;6877;51.436;6.774;2023-07-24T12:23:44;11.93;;;5.43;;
13611;SDS011;6877;51.436;6.774;2023-07-24T12:26:11;10.18;;;5.43;;
13611;SDS011;6877;51.436;6.774;2023-07-24T12:28:40;11.18;;;5.35;;
13611;SDS011;6877;51.436;6.774;2023-07-24T12:31:07;6.10;;;3.58;;
13611;SDS011;6877;51.436;6.774;2023-07-24T12:33:33;7.85;;;5.18;;
13611;SDS011;6877;51.436;6.774;2023-07-24T12:36:00;4.78;;;3.28;;
13611;SDS011;6877;51.436;6.774;2023-07-24T12:38:27;7.13;;;3.63;;
13611;SDS011;6877;51.436;6.774;2023-07-24T12:40:54;5.90;;;3.38;;
13611;SDS011;6877;51.436;6.774;2023-07-24T12:43:25;6.80;;;3.35;;
13611;SDS011;6877;51.436;6.774;2023-07-24T12:45:57;6.43;;;2.80;;
13611;SDS011;6877;51.436;6.774;2023-07-24T12:48:28;4.95;;;2.83;;
13611;SDS011;6877;51.436;6.774;2023-07-24T12:51:02;2.65;;;2.00;;
13611;SDS011;6877;51.436;6.774;2023-07-24T12:53:29;3.85;;;2.55;;
13611;SDS011;6877;51.436;6.774;2023-07-24T12:55:56;3.28;;;2.22;;
13611;SDS011;6877;51.436;6.774;2023-07-24T12:58:22;3.33;;;2.30;;
13611;SDS011;6877;51.436;6.774;2023-07-24T13:00:49;3.88;;;2.55;;
13611;SDS011;6877;51.436;6.774;2023-07-24T13:03:20;4.95;;;2.40;;
13611;SDS011;6877;51.436;6.774;2023-07-24T13:05:52;5.72;;;2.70;;
13611;SDS011;6877;51.436;6.774;2023-07-24T13:08:19;6.38;;;3.05;;
13611;SDS011;6877;51.436;6.774;2023-07-24T13:10:48;4.97;;;2.67;;
13611;SDS011;6877;51.436;6.774;2023-07-24T13:13:14;4.05;;;2.70;;
13611;SDS011;6877;51.436;6.774;2023-07-24T13:15:40;4.72;;;2.90;;
13611;SDS011;6877;51.436;6.774;2023-07-24T13:18:07;5.80;;;2.88;;
13611;SDS011;6877;51.436;6.774;2023-07-24T13:20:33;3.65;;;2.40;;
13611;SDS011;6877;51.436;6.774;2023-07-24T13:23:00;4.53;;;2.60;;
13611;SDS011;6877;51.436;6.774;2023-07-24T13:25:26;3.47;;;2.40;;
13611;SDS011;6877;51.436;6.774;2023-07-24T13:27:53;5.90;;;2.72;;
13611;SDS011;6877;51.436;6.774;2023-07-24T13:30:24;2.70;;;2.20;;
13611;SDS011;6877;51.436;6.774;2023-07-24T13:32:51;5.80;;;2.78;;
13611;SDS011;6877;51.436;6.774;2023-07-24T13:35:17;8.32;;;3.30;;
13611;SDS011;6877;51.436;6.774;2023-07-24T13:37:44;4.97;;;2.92;;
13611;SDS011;6877;51.436;6.774;2023-07-24T13:40:15;3.90;;;2.55;;
13611;SDS011;6877;51.436;6.774;2023-07-24T13:42:42;4.65;;;2.65;;
13611;SDS011;6877;51.436;6.774;2023-07-24T13:45:08;6.32;;;3.33;;
13611;SDS011;6877;51.436;6.774;2023-07-24T13:47:35;5.38;;;2.47;;
13611;SDS011;6877;51.436;6.774;2023-07-24T13:50:02;4.53;;;2.67;;
13611;SDS011;6877;51.436;6.774;2023-07-24T13:52:34;3.58;;;2.45;;
13611;SDS011;6877;51.436;6.774;2023-07-24T13:55:06;3.42;;;2.22;;
13611;SDS011;6877;51.436;6.774;2023-07-24T13:57:37;3.42;;;2.45;;
13611;SDS011;6877;51.436;6.774;2023-07-24T14:00:09;2.72;;;2.00;;
13611;SDS011;6877;51.436;6.774;2023-07-24T14:02:41;2.40;;;2.20;;
13611;SDS011;6877;51.436;6.774;2023-07-24T14:05:07;2.00;;;1.60;;
13611;SDS011;6877;51.436;6.774;2023-07-24T14:07:39;5.22;;;2.17;;
13611;SDS011;6877;51.436;6.774;2023-07-24T14:10:05;5.75;;;2.55;;
13611;SDS011;6877;51.436;6.774;2023-07-24T14:12:34;4.93;;;2.38;;
13611;SDS011;6877;51.436;6.774;2023-07-24T14:15:01;5.00;;;2.50;;
13611;SDS011;6877;51.436;6.774;2023-07-24T14:17:27;3.53;;;2.83;;
13611;SDS011;6877;51.436;6.774;2023-07-24T14:19:59;2.50;;;2.00;;
13611;SDS011;6877;51.436;6.774;2023-07-24T14:22:25;4.53;;;2.50;;
13611;SDS011;6877;51.436;6.774;2023-07-24T14:24:52;4.90;;;2.67;;
13611;SDS011;6877;51.436;6.774;2023-07-24T14:27:18;3.60;;;2.78;;
13611;SDS011;6877;51.436;6.774;2023-07-24T14:29:45;2.70;;;2.03;;
13611;SDS011;6877;51.436;6.774;2023-07-24T14:32:16;3.28;;;2.55;;
13611;SDS011;6877;51.436;6.774;2023-07-24T14:34:43;4.68;;;1.83;;
13611;SDS011;6877;51.436;6.774;2023-07-24T14:37:14;3.35;;;2.22;;
13611;SDS011;6877;51.436;6.774;2023-07-24T14:39:46;3.97;;;2.25;;
13611;SDS011;6877;51.436;6.774;2023-07-24T14:42:12;4.15;;;2.50;;
13611;SDS011;6877;51.436;6.774;2023-07-24T14:44:39;3.47;;;2.30;;
13611;SDS011;6877;51.436;6.774;2023-07-24T14:47:11;3.58;;;2.55;;
13611;SDS011;6877;51.436;6.774;2023-07-24T14:49:37;3.50;;;2.33;;
13611;SDS011;6877;51.436;6.774;2023-07-24T14:52:04;3.65;;;1.80;;
13611;SDS011;6877;51.436;6.774;2023-07-24T14:54:31;2.78;;;2.08;;
13611;SDS011;6877;51.436;6.774;2023-07-24T14:56:58;2.78;;;1.90;;
13611;SDS011;6877;51.436;6.774;2023-07-24T14:59:25;2.80;;;2.20;;
13611;SDS011;6877;51.436;6.774;2023-07-24T15:01:51;5.43;;;2.65;;
13611;SDS011;6877;51.436;6.774;2023-07-24T15:04:18;8.68;;;2.67;;
13611;SDS011;6877;51.436;6.774;2023-07-24T15:06:44;3.15;;;2.42;;
13611;SDS011;6877;51.436;6.774;2023-07-24T15:09:11;3.83;;;2.33;;
13611;SDS011;6877;51.436;6.774;2023-07-24T15:11:37;4.50;;;3.05;;
13611;SDS011;6877;51.436;6.774;2023-07-24T15:14:04;4.93;;;3.28;;